sensor_id;sensor_type;location;lat;lon;timestamp;P1;durP1;ratioP1;P2;durP2;ratioP2
54665;SDS011;40566;50.006;36.180;2022-10-18T00:04:43;18.95;;;6.80;;
54665;SDS011;40566;50.006;36.180;2022-10-18T00:09:45;18.33;;;7.40;;
54665;SDS011;40566;50.006;36.180;2022-10-18T00:14:47;17.13;;;6.90;;
54665;SDS011;40566;50.006;36.180;2022-10-18T00:19:49;17.45;;;6.93;;
54665;SDS011;40566;50.006;36.180;2022-10-18T00:24:50;17.02;;;7.30;;
54665;SDS011;40566;50.006;36.180;2022-10-18T00:29:51;22.42;;;7.22;;
54665;SDS011;40566;50.006;36.180;2022-10-18T00:34:52;19.80;;;7.60;;
54665;SDS011;40566;50.006;36.180;2022-10-18T00:39:53;17.58;;;7.75;;
54665;SDS011;40566;50.006;36.180;2022-10-18T00:45:16;18.27;;;8.25;;
54665;SDS011;40566;50.006;36.180;2022-10-18T00:50:17;17.00;;;7.55;;
54665;SDS011;40566;50.006;36.180;2022-10-18T00:55:20;18.13;;;7.65;;
54665;SDS011;40566;50.006;36.180;2022-10-18T01:00:21;17.10;;;7.78;;
54665;SDS011;40566;50.006;36.180;2022-10-18T01:05:21;17.42;;;7.07;;
54665;SDS011;40566;50.006;36.180;2022-10-18T01:15:57;21.63;;;8.45;;
54665;SDS011;40566;50.006;36.180;2022-10-18T01:21:16;21.23;;;7.85;;
54665;SDS011;40566;50.006;36.180;2022-10-18T01:31:52;19.80;;;7.10;;
54665;SDS011;40566;50.006;36.180;2022-10-18T01:37:02;15.30;;;6.65;;
54665;SDS011;40566;50.006;36.180;2022-10-18T01:42:08;16.25;;;7.00;;
54665;SDS011;40566;50.006;36.180;2022-10-18T01:47:11;21.02;;;7.65;;
54665;SDS011;40566;50.006;36.180;2022-10-18T01:52:14;16.83;;;6.78;;
54665;SDS011;40566;50.006;36.180;2022-10-18T02:07:46;15.82;;;6.18;;
54665;SDS011;40566;50.006;36.180;2022-10-18T02:13:01;16.77;;;7.60;;
54665;SDS011;40566;50.006;36.180;2022-10-18T02:18:04;15.75;;;7.57;;
54665;SDS011;40566;50.006;36.180;2022-10-18T02:23:10;22.52;;;9.13;;
54665;SDS011;40566;50.006;36.180;2022-10-18T02:28:13;19.00;;;8.65;;
54665;SDS011;40566;50.006;36.180;2022-10-18T02:33:15;18.67;;;7.80;;
54665;SDS011;40566;50.006;36.180;2022-10-18T02:38:20;21.70;;;9.35;;
54665;SDS011;40566;50.006;36.180;2022-10-18T02:43:24;21.80;;;8.32;;
54665;SDS011;40566;50.006;36.180;2022-10-18T02:48:25;22.92;;;9.00;;
54665;SDS011;40566;50.006;36.180;2022-10-18T02:53:26;20.25;;;8.43;;
54665;SDS011;40566;50.006;36.180;2022-10-18T02:58:26;18.65;;;8.00;;
54665;SDS011;40566;50.006;36.180;2022-10-18T03:03:27;21.88;;;9.18;;
54665;SDS011;40566;50.006;36.180;2022-10-18T03:08:27;24.27;;;9.48;;
54665;SDS011;40566;50.006;36.180;2022-10-18T03:13:28;24.30;;;9.60;;
54665;SDS011;40566;50.006;36.180;2022-10-18T03:18:29;29.05;;;10.20;;
54665;SDS011;40566;50.006;36.180;2022-10-18T03:23:29;25.65;;;10.48;;
54665;SDS011;40566;50.006;36.180;2022-10-18T03:28:30;23.73;;;10.32;;
54665;SDS011;40566;50.006;36.180;2022-10-18T03:33:30;25.75;;;10.50;;
54665;SDS011;40566;50.006;36.180;2022-10-18T03:38:31;22.77;;;10.43;;
54665;SDS011;40566;50.006;36.180;2022-10-18T03:43:32;25.52;;;10.70;;
54665;SDS011;40566;50.006;36.180;2022-10-18T03:48:33;29.30;;;10.07;;
54665;SDS011;40566;50.006;36.180;2022-10-18T03:53:33;24.25;;;11.05;;
54665;SDS011;40566;50.006;36.180;2022-10-18T03:58:34;27.70;;;12.82;;
54665;SDS011;40566;50.006;36.180;2022-10-18T04:03:35;25.02;;;10.15;;
54665;SDS011;40566;50.006;36.180;2022-10-18T04:08:35;25.95;;;11.57;;
54665;SDS011;40566;50.006;36.180;2022-10-18T04:13:36;26.08;;;10.70;;
54665;SDS011;40566;50.006;36.180;2022-10-18T04:18:37;24.95;;;10.57;;
54665;SDS011;40566;50.006;36.180;2022-10-18T04:23:37;28.33;;;11.52;;
54665;SDS011;40566;50.006;36.180;2022-10-18T04:28:38;28.38;;;12.38;;
54665;SDS011;40566;50.006;36.180;2022-10-18T04:33:38;28.50;;;12.27;;
54665;SDS011;40566;50.006;36.180;2022-10-18T04:38:39;30.27;;;11.73;;
54665;SDS011;40566;50.006;36.180;2022-10-18T04:43:40;27.45;;;10.85;;
54665;SDS011;40566;50.006;36.180;2022-10-18T04:48:40;24.52;;;10.60;;
54665;SDS011;40566;50.006;36.180;2022-10-18T04:53:41;28.75;;;12.20;;
54665;SDS011;40566;50.006;36.180;2022-10-18T04:58:41;30.77;;;11.77;;
54665;SDS011;40566;50.006;36.180;2022-10-18T05:03:42;28.17;;;11.90;;
54665;SDS011;40566;50.006;36.180;2022-10-18T05:08:42;26.25;;;11.10;;
54665;SDS011;40566;50.006;36.180;2022-10-18T05:13:43;33.53;;;12.48;;
54665;SDS011;40566;50.006;36.180;2022-10-18T05:18:44;30.60;;;12.43;;
54665;SDS011;40566;50.006;36.180;2022-10-18T05:23:44;27.83;;;12.27;;
54665;SDS011;40566;50.006;36.180;2022-10-18T05:28:45;31.40;;;10.90;;
54665;SDS011;40566;50.006;36.180;2022-10-18T05:33:45;25.20;;;9.10;;
54665;SDS011;40566;50.006;36.180;2022-10-18T05:38:46;22.00;;;9.77;;
54665;SDS011;40566;50.006;36.180;2022-10-18T05:43:47;19.98;;;8.40;;
54665;SDS011;40566;50.006;36.180;2022-10-18T05:48:48;23.00;;;8.43;;
54665;SDS011;40566;50.006;36.180;2022-10-18T05:53:50;60.90;;;18.88;;
54665;SDS011;40566;50.006;36.180;2022-10-18T05:58:52;24.50;;;8.80;;
54665;SDS011;40566;50.006;36.180;2022-10-18T06:03:52;25.08;;;10.40;;
54665;SDS011;40566;50.006;36.180;2022-10-18T06:08:53;25.20;;;8.82;;
54665;SDS011;40566;50.006;36.180;2022-10-18T06:13:53;23.38;;;9.35;;
54665;SDS011;40566;50.006;36.180;2022-10-18T06:18:55;18.60;;;9.30;;
54665;SDS011;40566;50.006;36.180;2022-10-18T06:23:56;18.55;;;7.93;;
54665;SDS011;40566;50.006;36.180;2022-10-18T06:28:58;21.58;;;9.63;;
54665;SDS011;40566;50.006;36.180;2022-10-18T06:33:58;22.77;;;9.50;;
54665;SDS011;40566;50.006;36.180;2022-10-18T06:39:00;23.05;;;10.88;;
54665;SDS011;40566;50.006;36.180;2022-10-18T06:44:01;21.92;;;10.38;;
54665;SDS011;40566;50.006;36.180;2022-10-18T06:49:13;23.63;;;11.55;;
54665;SDS011;40566;50.006;36.180;2022-10-18T06:54:14;21.67;;;10.98;;
54665;SDS011;40566;50.006;36.180;2022-10-18T06:59:15;25.30;;;12.77;;
54665;SDS011;40566;50.006;36.180;2022-10-18T07:04:16;25.63;;;13.07;;
54665;SDS011;40566;50.006;36.180;2022-10-18T07:09:17;26.15;;;11.60;;
54665;SDS011;40566;50.006;36.180;2022-10-18T07:14:17;24.75;;;11.02;;
54665;SDS011;40566;50.006;36.180;2022-10-18T07:19:18;20.95;;;10.15;;
54665;SDS011;40566;50.006;36.180;2022-10-18T07:24:19;17.02;;;8.38;;
54665;SDS011;40566;50.006;36.180;2022-10-18T07:29:19;17.65;;;7.65;;
54665;SDS011;40566;50.006;36.180;2022-10-18T07:34:20;23.05;;;7.90;;
54665;SDS011;40566;50.006;36.180;2022-10-18T07:39:20;16.08;;;7.30;;
54665;SDS011;40566;50.006;36.180;2022-10-18T07:44:21;16.73;;;6.95;;
54665;SDS011;40566;50.006;36.180;2022-10-18T07:49:22;17.65;;;6.82;;
54665;SDS011;40566;50.006;36.180;2022-10-18T07:54:23;14.88;;;5.68;;
54665;SDS011;40566;50.006;36.180;2022-10-18T07:59:23;16.15;;;5.80;;
54665;SDS011;40566;50.006;36.180;2022-10-18T08:04:24;15.38;;;5.43;;
54665;SDS011;40566;50.006;36.180;2022-10-18T08:09:25;15.65;;;5.43;;
54665;SDS011;40566;50.006;36.180;2022-10-18T08:14:25;14.77;;;5.90;;
54665;SDS011;40566;50.006;36.180;2022-10-18T08:19:26;13.13;;;4.75;;
54665;SDS011;40566;50.006;36.180;2022-10-18T08:24:26;14.88;;;4.80;;
54665;SDS011;40566;50.006;36.180;2022-10-18T08:29:27;10.57;;;5.00;;
54665;SDS011;40566;50.006;36.180;2022-10-18T08:34:28;11.20;;;4.50;;
54665;SDS011;40566;50.006;36.180;2022-10-18T08:39:28;15.27;;;4.30;;
54665;SDS011;40566;50.006;36.180;2022-10-18T08:44:29;10.70;;;4.20;;
54665;SDS011;40566;50.006;36.180;2022-10-18T08:49:50;15.90;;;4.30;;
54665;SDS011;40566;50.006;36.180;2022-10-18T08:55:10;9.48;;;3.75;;
54665;SDS011;40566;50.006;36.180;2022-10-18T09:00:23;9.80;;;3.88;;
54665;SDS011;40566;50.006;36.180;2022-10-18T09:16:18;11.30;;;4.20;;
54665;SDS011;40566;50.006;36.180;2022-10-18T09:21:29;13.48;;;3.78;;
54665;SDS011;40566;50.006;36.180;2022-10-18T09:26:46;21.40;;;6.78;;
54665;SDS011;40566;50.006;36.180;2022-10-18T09:31:58;14.80;;;4.97;;
54665;SDS011;40566;50.006;36.180;2022-10-18T09:37:11;12.63;;;3.72;;
54665;SDS011;40566;50.006;36.180;2022-10-18T09:42:15;12.93;;;4.20;;
54665;SDS011;40566;50.006;36.180;2022-10-18T09:47:32;8.40;;;3.38;;
54665;SDS011;40566;50.006;36.180;2022-10-18T09:52:40;8.00;;;3.65;;
54665;SDS011;40566;50.006;36.180;2022-10-18T09:57:52;11.68;;;4.35;;
54665;SDS011;40566;50.006;36.180;2022-10-18T10:03:00;20.30;;;7.28;;
54665;SDS011;40566;50.006;36.180;2022-10-18T10:08:01;9.15;;;3.65;;
54665;SDS011;40566;50.006;36.180;2022-10-18T10:13:18;10.70;;;3.83;;
54665;SDS011;40566;50.006;36.180;2022-10-18T10:18:28;19.85;;;6.28;;
54665;SDS011;40566;50.006;36.180;2022-10-18T10:28:40;14.40;;;5.30;;
54665;SDS011;40566;50.006;36.180;2022-10-18T10:33:47;11.70;;;3.92;;
54665;SDS011;40566;50.006;36.180;2022-10-18T10:39:11;9.88;;;4.25;;
54665;SDS011;40566;50.006;36.180;2022-10-18T10:44:18;14.73;;;4.95;;
54665;SDS011;40566;50.006;36.180;2022-10-18T10:49:22;9.20;;;3.22;;
54665;SDS011;40566;50.006;36.180;2022-10-18T10:54:25;7.90;;;2.40;;
54665;SDS011;40566;50.006;36.180;2022-10-18T10:59:31;8.88;;;2.85;;
54665;SDS011;40566;50.006;36.180;2022-10-18T11:04:53;8.07;;;2.58;;
54665;SDS011;40566;50.006;36.180;2022-10-18T11:15:13;7.45;;;2.60;;
54665;SDS011;40566;50.006;36.180;2022-10-18T11:20:24;10.73;;;4.00;;
54665;SDS011;40566;50.006;36.180;2022-10-18T11:25:38;11.10;;;2.78;;
54665;SDS011;40566;50.006;36.180;2022-10-18T11:30:54;13.93;;;3.30;;
54665;SDS011;40566;50.006;36.180;2022-10-18T11:36:02;6.68;;;2.78;;
54665;SDS011;40566;50.006;36.180;2022-10-18T12:02:42;8.60;;;2.45;;
54665;SDS011;40566;50.006;36.180;2022-10-18T12:08:06;5.00;;;2.13;;
54665;SDS011;40566;50.006;36.180;2022-10-18T12:19:03;5.55;;;2.25;;
54665;SDS011;40566;50.006;36.180;2022-10-18T12:24:07;7.95;;;2.60;;
54665;SDS011;40566;50.006;36.180;2022-10-18T12:29:34;7.93;;;2.60;;
54665;SDS011;40566;50.006;36.180;2022-10-18T12:34:51;7.45;;;2.53;;
54665;SDS011;40566;50.006;36.180;2022-10-18T12:39:57;6.40;;;2.10;;
54665;SDS011;40566;50.006;36.180;2022-10-18T12:55:33;9.88;;;3.70;;
54665;SDS011;40566;50.006;36.180;2022-10-18T13:06:01;30.67;;;10.05;;
54665;SDS011;40566;50.006;36.180;2022-10-18T13:26:37;19.23;;;6.57;;
54665;SDS011;40566;50.006;36.180;2022-10-18T13:32:01;11.88;;;4.28;;
54665;SDS011;40566;50.006;36.180;2022-10-18T13:42:17;11.55;;;4.72;;
54665;SDS011;40566;50.006;36.180;2022-10-18T13:47:37;16.35;;;5.50;;
54665;SDS011;40566;50.006;36.180;2022-10-18T13:58:17;14.50;;;5.97;;
54665;SDS011;40566;50.006;36.180;2022-10-18T14:19:46;23.80;;;7.10;;
54665;SDS011;40566;50.006;36.180;2022-10-18T14:24:53;18.60;;;5.97;;
54665;SDS011;40566;50.006;36.180;2022-10-18T14:35:18;23.17;;;6.13;;
54665;SDS011;40566;50.006;36.180;2022-10-18T14:45:27;22.45;;;8.10;;
54665;SDS011;40566;50.006;36.180;2022-10-18T14:50:27;19.13;;;6.13;;
54665;SDS011;40566;50.006;36.180;2022-10-18T14:55:29;25.50;;;7.35;;
54665;SDS011;40566;50.006;36.180;2022-10-18T15:00:33;17.30;;;6.00;;
54665;SDS011;40566;50.006;36.180;2022-10-18T15:05:35;13.85;;;3.78;;
54665;SDS011;40566;50.006;36.180;2022-10-18T15:10:36;12.35;;;4.20;;
54665;SDS011;40566;50.006;36.180;2022-10-18T15:15:37;48.80;;;12.00;;
54665;SDS011;40566;50.006;36.180;2022-10-18T15:20:38;42.90;;;8.25;;
54665;SDS011;40566;50.006;36.180;2022-10-18T15:25:41;21.48;;;5.68;;
54665;SDS011;40566;50.006;36.180;2022-10-18T15:30:42;15.45;;;4.88;;
54665;SDS011;40566;50.006;36.180;2022-10-18T15:35:42;13.80;;;4.68;;
54665;SDS011;40566;50.006;36.180;2022-10-18T15:40:43;12.45;;;4.65;;
54665;SDS011;40566;50.006;36.180;2022-10-18T15:45:44;14.45;;;5.00;;
54665;SDS011;40566;50.006;36.180;2022-10-18T16:01:17;18.05;;;6.53;;
54665;SDS011;40566;50.006;36.180;2022-10-18T16:06:21;17.42;;;6.65;;
54665;SDS011;40566;50.006;36.180;2022-10-18T16:11:22;20.65;;;6.80;;
54665;SDS011;40566;50.006;36.180;2022-10-18T16:16:25;25.45;;;8.90;;
54665;SDS011;40566;50.006;36.180;2022-10-18T16:21:28;18.65;;;6.97;;
54665;SDS011;40566;50.006;36.180;2022-10-18T16:26:33;19.00;;;5.70;;
54665;SDS011;40566;50.006;36.180;2022-10-18T16:31:34;15.88;;;6.03;;
54665;SDS011;40566;50.006;36.180;2022-10-18T16:36:35;14.80;;;5.32;;
54665;SDS011;40566;50.006;36.180;2022-10-18T16:41:36;12.18;;;4.60;;
54665;SDS011;40566;50.006;36.180;2022-10-18T16:46:37;11.00;;;4.05;;
54665;SDS011;40566;50.006;36.180;2022-10-18T16:51:38;11.95;;;4.43;;
54665;SDS011;40566;50.006;36.180;2022-10-18T16:56:38;12.95;;;4.30;;
54665;SDS011;40566;50.006;36.180;2022-10-18T17:01:39;8.07;;;3.25;;
54665;SDS011;40566;50.006;36.180;2022-10-18T17:06:40;15.40;;;3.88;;
54665;SDS011;40566;50.006;36.180;2022-10-18T17:11:40;15.68;;;3.92;;
54665;SDS011;40566;50.006;36.180;2022-10-18T17:16:41;12.13;;;3.70;;
54665;SDS011;40566;50.006;36.180;2022-10-18T17:21:42;11.73;;;3.67;;
54665;SDS011;40566;50.006;36.180;2022-10-18T17:26:42;9.85;;;3.67;;
54665;SDS011;40566;50.006;36.180;2022-10-18T17:31:43;9.43;;;3.78;;
54665;SDS011;40566;50.006;36.180;2022-10-18T17:36:44;8.07;;;3.30;;
54665;SDS011;40566;50.006;36.180;2022-10-18T17:41:44;9.27;;;3.60;;
54665;SDS011;40566;50.006;36.180;2022-10-18T17:46:45;18.20;;;7.28;;
54665;SDS011;40566;50.006;36.180;2022-10-18T17:51:45;12.43;;;4.40;;
54665;SDS011;40566;50.006;36.180;2022-10-18T17:56:46;9.30;;;3.33;;
54665;SDS011;40566;50.006;36.180;2022-10-18T18:01:47;11.32;;;4.38;;
54665;SDS011;40566;50.006;36.180;2022-10-18T18:06:47;11.88;;;3.60;;
54665;SDS011;40566;50.006;36.180;2022-10-18T18:11:48;10.85;;;3.38;;
54665;SDS011;40566;50.006;36.180;2022-10-18T18:16:50;9.40;;;3.83;;
54665;SDS011;40566;50.006;36.180;2022-10-18T18:21:51;12.40;;;4.20;;
54665;SDS011;40566;50.006;36.180;2022-10-18T18:26:54;10.30;;;4.43;;
54665;SDS011;40566;50.006;36.180;2022-10-18T18:31:55;12.93;;;3.70;;
54665;SDS011;40566;50.006;36.180;2022-10-18T18:36:56;13.32;;;3.42;;
54665;SDS011;40566;50.006;36.180;2022-10-18T18:41:56;9.32;;;3.22;;
54665;SDS011;40566;50.006;36.180;2022-10-18T18:46:57;8.23;;;3.17;;
54665;SDS011;40566;50.006;36.180;2022-10-18T18:51:58;11.98;;;3.13;;
54665;SDS011;40566;50.006;36.180;2022-10-18T18:56:58;10.30;;;3.00;;
54665;SDS011;40566;50.006;36.180;2022-10-18T19:02:04;10.82;;;3.30;;
54665;SDS011;40566;50.006;36.180;2022-10-18T19:07:04;8.23;;;3.28;;
54665;SDS011;40566;50.006;36.180;2022-10-18T19:12:05;11.88;;;3.40;;
54665;SDS011;40566;50.006;36.180;2022-10-18T19:17:05;9.52;;;3.50;;
54665;SDS011;40566;50.006;36.180;2022-10-18T19:22:07;12.98;;;3.65;;
54665;SDS011;40566;50.006;36.180;2022-10-18T19:27:09;11.05;;;3.60;;
54665;SDS011;40566;50.006;36.180;2022-10-18T19:32:14;9.50;;;3.35;;
54665;SDS011;40566;50.006;36.180;2022-10-18T19:37:16;11.35;;;4.35;;
54665;SDS011;40566;50.006;36.180;2022-10-18T19:42:16;10.27;;;3.97;;
54665;SDS011;40566;50.006;36.180;2022-10-18T19:47:17;11.70;;;4.47;;
54665;SDS011;40566;50.006;36.180;2022-10-18T19:52:19;10.30;;;3.88;;
54665;SDS011;40566;50.006;36.180;2022-10-18T19:57:20;10.73;;;3.75;;
54665;SDS011;40566;50.006;36.180;2022-10-18T20:02:20;15.38;;;4.53;;
54665;SDS011;40566;50.006;36.180;2022-10-18T20:07:21;12.15;;;4.50;;
54665;SDS011;40566;50.006;36.180;2022-10-18T20:12:22;13.45;;;4.50;;
54665;SDS011;40566;50.006;36.180;2022-10-18T20:17:23;16.95;;;4.78;;
54665;SDS011;40566;50.006;36.180;2022-10-18T20:22:24;16.08;;;4.43;;
54665;SDS011;40566;50.006;36.180;2022-10-18T20:27:25;15.38;;;4.38;;
54665;SDS011;40566;50.006;36.180;2022-10-18T20:32:25;13.48;;;4.15;;
54665;SDS011;40566;50.006;36.180;2022-10-18T20:37:26;12.68;;;4.50;;
54665;SDS011;40566;50.006;36.180;2022-10-18T20:42:26;13.38;;;4.63;;
54665;SDS011;40566;50.006;36.180;2022-10-18T20:47:27;9.95;;;3.92;;
54665;SDS011;40566;50.006;36.180;2022-10-18T20:52:27;12.32;;;4.03;;
54665;SDS011;40566;50.006;36.180;2022-10-18T20:57:28;10.77;;;4.00;;
54665;SDS011;40566;50.006;36.180;2022-10-18T21:02:30;12.68;;;4.65;;
54665;SDS011;40566;50.006;36.180;2022-10-18T21:07:30;14.57;;;4.85;;
54665;SDS011;40566;50.006;36.180;2022-10-18T21:12:31;13.00;;;4.25;;
54665;SDS011;40566;50.006;36.180;2022-10-18T21:17:32;11.38;;;3.63;;
54665;SDS011;40566;50.006;36.180;2022-10-18T21:22:32;12.18;;;3.97;;
54665;SDS011;40566;50.006;36.180;2022-10-18T21:27:33;12.27;;;4.13;;
54665;SDS011;40566;50.006;36.180;2022-10-18T21:32:33;9.55;;;4.05;;
54665;SDS011;40566;50.006;36.180;2022-10-18T21:37:34;17.65;;;4.60;;
54665;SDS011;40566;50.006;36.180;2022-10-18T21:42:35;11.98;;;3.92;;
54665;SDS011;40566;50.006;36.180;2022-10-18T21:47:35;11.88;;;4.18;;
54665;SDS011;40566;50.006;36.180;2022-10-18T21:52:36;14.75;;;4.28;;
54665;SDS011;40566;50.006;36.180;2022-10-18T21:57:37;9.43;;;3.75;;
54665;SDS011;40566;50.006;36.180;2022-10-18T22:02:37;9.32;;;3.63;;
54665;SDS011;40566;50.006;36.180;2022-10-18T22:07:38;12.48;;;3.65;;
54665;SDS011;40566;50.006;36.180;2022-10-18T22:12:39;12.13;;;3.53;;
54665;SDS011;40566;50.006;36.180;2022-10-18T22:17:39;12.10;;;4.00;;
54665;SDS011;40566;50.006;36.180;2022-10-18T22:22:40;9.98;;;4.05;;
54665;SDS011;40566;50.006;36.180;2022-10-18T22:27:40;14.48;;;4.35;;
54665;SDS011;40566;50.006;36.180;2022-10-18T22:32:41;10.25;;;3.80;;
54665;SDS011;40566;50.006;36.180;2022-10-18T22:37:41;15.65;;;3.97;;
54665;SDS011;40566;50.006;36.180;2022-10-18T22:42:42;12.38;;;4.20;;
54665;SDS011;40566;50.006;36.180;2022-10-18T22:47:43;11.18;;;3.88;;
54665;SDS011;40566;50.006;36.180;2022-10-18T22:52:44;11.45;;;4.07;;
54665;SDS011;40566;50.006;36.180;2022-10-18T22:57:44;11.07;;;4.30;;
54665;SDS011;40566;50.006;36.180;2022-10-18T23:02:47;9.93;;;3.90;;
54665;SDS011;40566;50.006;36.180;2022-10-18T23:07:48;10.38;;;3.83;;
54665;SDS011;40566;50.006;36.180;2022-10-18T23:12:48;16.00;;;3.78;;
54665;SDS011;40566;50.006;36.180;2022-10-18T23:17:49;14.25;;;4.15;;
54665;SDS011;40566;50.006;36.180;2022-10-18T23:22:53;15.93;;;3.88;;
54665;SDS011;40566;50.006;36.180;2022-10-18T23:27:55;11.10;;;3.80;;
54665;SDS011;40566;50.006;36.180;2022-10-18T23:32:56;11.95;;;4.00;;
54665;SDS011;40566;50.006;36.180;2022-10-18T23:37:56;12.57;;;4.60;;
54665;SDS011;40566;50.006;36.180;2022-10-18T23:42:57;11.43;;;3.80;;
54665;SDS011;40566;50.006;36.180;2022-10-18T23:47:57;11.35;;;3.60;;
54665;SDS011;40566;50.006;36.180;2022-10-18T23:52:58;10.82;;;3.25;;
54665;SDS011;40566;50.006;36.180;2022-10-18T23:57:58;10.65;;;3.15;;
